createdAt,value
2019-03-25T00:01:46.253Z,12.40
2019-03-25T00:03:52.700Z,12.23
2019-03-25T00:06:00.026Z,15.50
2019-03-25T00:08:06.121Z,18.95
2019-03-25T00:10:12.651Z,11.80
2019-03-25T00:12:18.770Z,12.73
2019-03-25T00:14:24.845Z,14.65
2019-03-25T00:16:30.938Z,14.35
2019-03-25T00:18:36.928Z,11.73
2019-03-25T00:20:42.906Z,11.22
2019-03-25T00:22:49.518Z,16.30
2019-03-25T00:24:55.502Z,18.92
2019-03-25T00:27:01.510Z,16.80
2019-03-25T00:29:07.550Z,14.63
2019-03-25T00:31:16.330Z,14.58
2019-03-25T00:33:23.052Z,12.37
2019-03-25T00:35:29.075Z,12.33
2019-03-25T00:37:35.061Z,14.55
2019-03-25T00:39:41.077Z,16.93
2019-03-25T00:41:47.362Z,12.73
2019-03-25T00:43:53.811Z,12.65
2019-03-25T00:45:59.903Z,15.08
2019-03-25T00:48:05.907Z,13.60
2019-03-25T00:50:12.163Z,18.10
2019-03-25T00:52:18.195Z,15.95
2019-03-25T00:54:24.198Z,13.50
2019-03-25T00:56:30.211Z,14.78
2019-03-25T00:58:36.258Z,11.88
2019-03-25T01:00:42.344Z,13.90
2019-03-25T01:02:48.374Z,13.83
2019-03-25T01:04:54.391Z,15.23
2019-03-25T01:07:00.492Z,14.85
2019-03-25T01:09:07.590Z,17.17
2019-03-25T01:11:13.631Z,13.62
2019-03-25T01:13:21.361Z,16.17
2019-03-25T01:15:27.383Z,17.23
2019-03-25T01:17:33.503Z,15.20
2019-03-25T01:19:39.548Z,11.80
2019-03-25T01:21:45.543Z,13.40
2019-03-25T01:23:51.586Z,15.38
2019-03-25T01:25:57.591Z,12.73
2019-03-25T01:28:03.566Z,12.85
2019-03-25T01:30:09.989Z,12.82
2019-03-25T01:32:19.026Z,12.40
2019-03-25T01:34:25.030Z,14.25
2019-03-25T01:36:31.077Z,13.35
2019-03-25T01:38:37.102Z,18.55
2019-03-25T01:40:43.102Z,12.50
2019-03-25T01:42:49.086Z,14.73
2019-03-25T01:44:55.146Z,13.58
2019-03-25T01:47:01.480Z,13.50
2019-03-25T01:49:10.527Z,14.30
2019-03-25T01:51:17.574Z,12.35
2019-03-25T01:53:23.638Z,13.35
2019-03-25T01:55:29.610Z,14.87
2019-03-25T01:57:35.628Z,12.47
2019-03-25T01:59:41.671Z,13.93
2019-03-25T02:01:47.651Z,12.80
2019-03-25T02:03:53.938Z,13.58
2019-03-25T02:05:59.926Z,19.75
2019-03-25T02:08:05.911Z,13.60
2019-03-25T02:10:13.237Z,11.63
2019-03-25T02:12:20.896Z,15.08
2019-03-25T02:14:27.013Z,15.90
2019-03-25T02:16:35.628Z,12.00
2019-03-25T02:18:40.716Z,12.65
2019-03-25T02:20:46.807Z,11.33
2019-03-25T02:22:52.900Z,12.68
2019-03-25T02:24:58.981Z,12.28
2019-03-25T02:27:04.998Z,13.25
2019-03-25T02:29:10.998Z,16.32
2019-03-25T02:31:18.221Z,12.45
2019-03-25T02:33:24.219Z,17.95
2019-03-25T02:35:30.288Z,18.20
2019-03-25T02:37:36.350Z,14.63
2019-03-25T02:39:42.370Z,12.15
2019-03-25T02:41:48.388Z,13.75
2019-03-25T02:43:54.362Z,11.50
2019-03-25T02:46:00.459Z,11.18
2019-03-25T02:48:06.455Z,15.58
2019-03-25T02:50:12.973Z,15.15
2019-03-25T02:52:21.818Z,13.35
2019-03-25T02:54:27.842Z,9.80
2019-03-25T02:56:33.907Z,11.30
2019-03-25T02:58:39.907Z,12.33
2019-03-25T03:00:45.899Z,12.40
2019-03-25T03:02:51.977Z,11.40
2019-03-25T03:04:58.045Z,11.73
2019-03-25T03:07:04.144Z,15.23
2019-03-25T03:09:11.253Z,12.03
2019-03-25T03:11:19.461Z,10.72
2019-03-25T03:13:25.450Z,14.83
2019-03-25T03:15:31.463Z,15.78
2019-03-25T03:17:37.560Z,12.60
2019-03-25T03:19:43.566Z,12.93
2019-03-25T03:21:49.564Z,11.30
2019-03-25T03:23:55.629Z,12.78
2019-03-25T03:26:01.646Z,14.83
2019-03-25T03:28:07.739Z,14.78
2019-03-25T03:30:13.928Z,12.98
2019-03-25T03:32:22.908Z,11.00
2019-03-25T03:34:28.944Z,12.60
2019-03-25T03:36:34.967Z,17.42
2019-03-25T03:38:41.026Z,19.98
2019-03-25T03:40:47.096Z,10.45
2019-03-25T03:42:53.131Z,11.15
2019-03-25T03:44:59.126Z,14.40
2019-03-25T03:47:05.145Z,13.50
2019-03-25T03:49:11.207Z,13.48
2019-03-25T03:51:17.408Z,11.55
2019-03-25T03:53:23.482Z,12.53
2019-03-25T03:55:30.227Z,11.50
2019-03-25T03:57:36.504Z,11.70
2019-03-25T03:59:43.124Z,13.18
2019-03-25T04:01:49.175Z,15.25
2019-03-25T04:03:55.224Z,15.20
2019-03-25T04:06:01.499Z,11.10
2019-03-25T04:08:07.626Z,12.70
2019-03-25T04:10:13.904Z,11.80
2019-03-25T04:12:19.899Z,10.53
2019-03-25T04:14:25.893Z,15.70
2019-03-25T04:16:31.895Z,11.50
2019-03-25T04:18:41.678Z,11.78
2019-03-25T04:20:47.758Z,12.28
2019-03-25T04:22:54.040Z,13.18
2019-03-25T04:25:00.186Z,14.33
2019-03-25T04:27:06.458Z,13.15
2019-03-25T04:29:12.488Z,12.88
2019-03-25T04:31:21.874Z,13.05
2019-03-25T04:33:29.646Z,13.18
2019-03-25T04:35:35.763Z,12.60
2019-03-25T04:37:41.867Z,14.65
2019-03-25T04:39:48.128Z,17.00
2019-03-25T04:41:54.466Z,12.35
2019-03-25T04:44:00.454Z,15.05
2019-03-25T04:46:06.498Z,19.65
2019-03-25T04:48:12.534Z,16.40
2019-03-25T04:50:18.540Z,15.83
2019-03-25T04:52:24.638Z,19.75
2019-03-25T04:54:32.418Z,20.02
2019-03-25T04:56:39.856Z,11.70
2019-03-25T04:58:46.212Z,10.78
2019-03-25T05:00:52.365Z,13.85
2019-03-25T05:02:58.459Z,13.45
2019-03-25T05:05:04.585Z,23.05
2019-03-25T05:07:10.611Z,15.23
2019-03-25T05:09:16.947Z,17.12
2019-03-25T05:11:30.505Z,13.43
2019-03-25T05:13:33.115Z,17.02
2019-03-25T05:15:38.370Z,14.05
2019-03-25T05:17:45.987Z,13.98
2019-03-25T05:19:51.994Z,17.73
2019-03-25T05:22:00.438Z,16.40
2019-03-25T05:24:06.424Z,16.77
2019-03-25T05:26:12.542Z,14.85
2019-03-25T05:28:18.705Z,13.70
2019-03-25T05:30:24.691Z,17.02
2019-03-25T05:32:34.455Z,12.85
2019-03-25T05:34:47.926Z,17.12
2019-03-25T05:36:53.991Z,15.95
2019-03-25T05:39:01.629Z,17.92
2019-03-25T05:41:07.671Z,18.70
2019-03-25T05:43:13.672Z,14.98
2019-03-25T05:45:19.691Z,15.30
2019-03-25T05:47:25.804Z,13.62
2019-03-25T05:49:32.698Z,13.40
2019-03-25T05:51:41.170Z,17.48
2019-03-25T05:53:47.207Z,11.78
2019-03-25T05:55:55.126Z,13.03
2019-03-25T05:58:01.116Z,12.85
2019-03-25T06:00:07.959Z,19.00
2019-03-25T06:02:13.936Z,16.97
2019-03-25T06:04:19.943Z,18.30
2019-03-25T06:06:26.202Z,23.25
2019-03-25T06:08:32.642Z,20.68
2019-03-25T06:10:38.958Z,17.35
2019-03-25T06:12:45.595Z,24.40
2019-03-25T06:14:51.914Z,18.85
2019-03-25T06:16:57.952Z,20.32
2019-03-25T06:19:04.314Z,20.90
2019-03-25T06:21:10.390Z,51.37
2019-03-25T06:23:16.494Z,71.92
2019-03-25T06:25:25.124Z,17.12
2019-03-25T06:27:32.650Z,20.23
2019-03-25T06:29:38.698Z,17.37
2019-03-25T06:31:44.682Z,21.07
2019-03-25T06:33:51.849Z,25.27
2019-03-25T06:35:58.058Z,18.65
2019-03-25T06:38:04.380Z,26.07
2019-03-25T06:40:10.696Z,18.25
2019-03-25T06:42:18.483Z,16.27
2019-03-25T06:44:24.498Z,19.25
2019-03-25T06:46:30.688Z,17.95
2019-03-25T06:48:36.918Z,17.55
2019-03-25T06:50:42.975Z,24.25
2019-03-25T06:52:50.824Z,16.40
2019-03-25T06:54:56.814Z,18.30
2019-03-25T06:57:03.076Z,30.65
2019-03-25T06:59:09.119Z,28.90
2019-03-25T07:01:15.195Z,36.85
2019-03-25T07:03:21.202Z,32.90
2019-03-25T07:05:27.417Z,37.83
2019-03-25T07:07:33.690Z,33.95
2019-03-25T07:09:41.067Z,37.13
2019-03-25T07:11:47.122Z,35.80
2019-03-25T07:13:53.193Z,35.53
2019-03-25T07:15:59.174Z,35.07
2019-03-25T07:18:06.040Z,37.77
2019-03-25T07:20:11.745Z,40.93
2019-03-25T07:22:17.544Z,43.00
2019-03-25T07:24:24.017Z,38.97
2019-03-25T07:26:30.134Z,47.90
2019-03-25T07:28:35.964Z,38.97
2019-03-25T07:30:41.755Z,38.40
2019-03-25T07:32:47.802Z,39.35
2019-03-25T07:34:53.608Z,38.50
2019-03-25T07:37:01.030Z,36.03
2019-03-25T07:39:07.807Z,33.50
2019-03-25T07:41:13.847Z,35.30
2019-03-25T07:43:19.859Z,36.03
2019-03-25T07:45:25.859Z,36.70
2019-03-25T07:47:31.597Z,43.70
2019-03-25T07:49:37.358Z,38.07
2019-03-25T07:51:43.058Z,34.93
2019-03-25T07:53:50.958Z,41.20
2019-03-25T07:55:56.197Z,44.03
2019-03-25T07:58:01.898Z,44.77
2019-03-25T08:00:13.797Z,47.60
2019-03-25T08:02:17.691Z,45.60
2019-03-25T08:04:23.397Z,45.33
2019-03-25T08:06:29.176Z,50.77
2019-03-25T08:08:34.911Z,53.13
2019-03-25T08:10:40.589Z,47.90
2019-03-25T08:12:46.592Z,52.75
2019-03-25T08:14:52.683Z,51.60
2019-03-25T08:16:58.734Z,51.28
2019-03-25T08:19:04.716Z,49.00
2019-03-25T08:21:13.510Z,50.20
2019-03-25T08:23:19.299Z,49.67
2019-03-25T08:25:25.059Z,53.27
2019-03-25T08:27:30.747Z,52.60
2019-03-25T08:29:36.459Z,48.30
2019-03-25T08:31:42.154Z,48.87
2019-03-25T08:33:47.874Z,51.53
2019-03-25T08:35:53.666Z,51.17
2019-03-25T08:37:59.458Z,47.73
2019-03-25T08:40:05.744Z,48.00
2019-03-25T08:42:11.513Z,47.30
2019-03-25T08:44:18.931Z,45.30
2019-03-25T08:46:24.723Z,50.93
2019-03-25T08:48:32.723Z,44.73
2019-03-25T08:50:38.526Z,49.40
2019-03-25T08:52:44.205Z,44.97
2019-03-25T08:54:49.979Z,48.17
2019-03-25T08:56:55.750Z,48.57
2019-03-25T08:59:01.460Z,48.70
2019-03-25T09:01:07.276Z,45.93
2019-03-25T09:03:13.027Z,44.77
2019-03-25T09:05:19.147Z,48.70
2019-03-25T09:07:24.978Z,51.27
2019-03-25T09:09:30.728Z,43.27
2019-03-25T09:11:36.526Z,46.93
2019-03-25T09:13:42.355Z,42.47
2019-03-25T09:15:48.067Z,40.67
2019-03-25T09:17:53.785Z,41.00
2019-03-25T09:19:59.522Z,43.73
2019-03-25T09:22:05.461Z,40.93
2019-03-25T09:24:11.241Z,42.03
2019-03-25T09:26:16.958Z,44.70
2019-03-25T09:28:25.037Z,41.80
2019-03-25T09:31:16.135Z,45.10
2019-03-25T09:33:21.893Z,43.17
2019-03-25T09:35:27.662Z,42.90
2019-03-25T09:37:33.426Z,40.93
2019-03-25T09:39:39.170Z,42.23
2019-03-25T09:41:44.883Z,45.80
2019-03-25T09:43:50.669Z,43.80
2019-03-25T09:45:56.454Z,42.20
2019-03-25T09:48:02.162Z,46.13
2019-03-25T09:50:08.716Z,45.00
2019-03-25T09:52:14.503Z,43.37
2019-03-25T09:54:20.360Z,45.50
2019-03-25T09:56:27.271Z,44.30
2019-03-25T09:58:36.627Z,42.73
2019-03-25T10:00:40.455Z,44.07
2019-03-25T10:02:46.178Z,44.20
2019-03-25T10:04:51.906Z,48.80
2019-03-25T10:06:58.030Z,46.37
2019-03-25T10:09:05.462Z,45.20
2019-03-25T10:11:11.227Z,50.60
2019-03-25T10:13:17.035Z,47.30
2019-03-25T10:15:22.727Z,50.50
2019-03-25T10:17:28.470Z,48.23
2019-03-25T10:19:36.909Z,52.67
2019-03-25T10:21:42.677Z,50.10
2019-03-25T10:23:48.563Z,48.90
2019-03-25T10:25:54.339Z,50.83
2019-03-25T10:28:00.068Z,51.67
2019-03-25T10:30:06.367Z,50.43
2019-03-25T10:32:12.078Z,43.93
2019-03-25T10:34:17.860Z,42.93
2019-03-25T10:36:23.663Z,48.20
2019-03-25T10:38:29.390Z,41.37
2019-03-25T10:40:35.265Z,46.00
2019-03-25T10:42:40.974Z,42.10
2019-03-25T10:44:46.877Z,44.30
2019-03-25T10:46:52.742Z,50.43
2019-03-25T10:48:58.509Z,48.37
2019-03-25T10:51:04.375Z,55.93
2019-03-25T10:53:10.094Z,52.13
2019-03-25T10:55:15.826Z,53.10
2019-03-25T10:57:21.626Z,50.73
2019-03-25T10:59:27.374Z,52.43
2019-03-25T11:01:33.074Z,51.13
2019-03-25T11:03:39.078Z,58.53
2019-03-25T11:05:45.087Z,57.60
2019-03-25T11:07:51.187Z,65.83
2019-03-25T11:09:57.167Z,47.88
2019-03-25T11:12:03.198Z,45.12
2019-03-25T11:14:09.213Z,56.95
2019-03-25T11:16:15.272Z,50.50
2019-03-25T11:18:21.242Z,54.13
2019-03-25T11:20:27.263Z,53.58
2019-03-25T11:22:33.267Z,55.03
2019-03-25T11:24:39.290Z,61.60
2019-03-25T11:26:45.467Z,59.38
2019-03-25T11:28:51.522Z,60.43
2019-03-25T11:31:01.043Z,55.17
2019-03-25T11:33:07.050Z,60.40
2019-03-25T11:35:13.446Z,58.60
2019-03-25T11:37:19.482Z,57.35
2019-03-25T11:39:25.474Z,68.60
2019-03-25T11:41:31.474Z,61.73
2019-03-25T11:43:37.502Z,59.50
2019-03-25T11:45:43.478Z,59.35
2019-03-25T11:47:49.586Z,59.85
2019-03-25T11:49:55.566Z,60.28
2019-03-25T11:52:01.571Z,59.80
2019-03-25T11:54:07.558Z,62.03
2019-03-25T11:56:13.621Z,64.05
2019-03-25T11:58:19.639Z,60.60
2019-03-25T12:00:25.729Z,59.83
2019-03-25T12:02:31.795Z,66.35
2019-03-25T12:04:37.802Z,66.53
2019-03-25T12:06:45.625Z,63.23
2019-03-25T12:08:52.462Z,64.55
2019-03-25T12:10:58.478Z,59.65
2019-03-25T12:13:04.580Z,57.27
2019-03-25T12:15:10.610Z,59.77
2019-03-25T12:17:16.607Z,59.80
2019-03-25T12:19:22.746Z,51.35
2019-03-25T12:21:28.766Z,57.15
2019-03-25T12:23:34.754Z,58.52
2019-03-25T12:25:40.763Z,50.38
2019-03-25T12:27:46.846Z,46.13
2019-03-25T12:29:52.817Z,50.30
2019-03-25T12:32:01.650Z,50.15
2019-03-25T12:34:09.598Z,49.65
2019-03-25T12:36:15.671Z,49.55
2019-03-25T12:38:21.655Z,46.37
2019-03-25T12:40:27.646Z,56.13
2019-03-25T12:42:33.623Z,50.00
2019-03-25T12:44:39.639Z,48.92
2019-03-25T12:46:45.678Z,55.40
2019-03-25T12:48:51.727Z,54.38
2019-03-25T12:50:57.775Z,59.63
2019-03-25T12:53:03.741Z,56.02
2019-03-25T12:55:09.823Z,49.23
2019-03-25T12:57:15.828Z,43.15
2019-03-25T12:59:21.827Z,30.08
2019-03-25T13:01:27.894Z,24.90
2019-03-25T13:03:33.894Z,33.18
2019-03-25T13:05:40.043Z,24.67
2019-03-25T13:07:46.154Z,29.82
2019-03-25T13:09:52.212Z,33.38
2019-03-25T13:11:58.185Z,27.10
2019-03-25T13:14:05.507Z,30.68
2019-03-25T13:16:11.551Z,26.10
2019-03-25T13:18:17.582Z,27.07
2019-03-25T13:20:23.603Z,24.65
2019-03-25T13:22:29.594Z,30.32
2019-03-25T13:24:35.659Z,27.32
2019-03-25T13:26:41.626Z,32.40
2019-03-25T13:28:47.682Z,30.77
2019-03-25T13:30:53.804Z,29.30
2019-03-25T13:32:59.796Z,27.25
2019-03-25T13:35:05.999Z,18.07
2019-03-25T13:37:14.371Z,19.45
2019-03-25T13:39:20.390Z,21.20
2019-03-25T13:41:26.386Z,9.15
2019-03-25T13:43:32.343Z,5.90
2019-03-25T13:45:38.423Z,4.92
2019-03-25T13:47:44.460Z,3.80
2019-03-25T13:49:50.523Z,4.95
2019-03-25T13:51:56.620Z,2.52
2019-03-25T13:54:02.577Z,2.58
2019-03-25T13:56:08.567Z,2.30
2019-03-25T13:58:14.746Z,2.20
2019-03-25T14:00:42.127Z,2.55
2019-03-25T14:02:48.201Z,2.55
2019-03-25T14:04:54.225Z,3.17
2019-03-25T14:07:00.190Z,4.97
2019-03-25T14:09:07.674Z,3.40
2019-03-25T14:11:13.693Z,2.22
2019-03-25T14:13:21.862Z,2.05
2019-03-25T14:15:27.891Z,2.60
2019-03-25T14:17:33.874Z,4.25
2019-03-25T14:19:39.854Z,5.83
2019-03-25T14:21:45.798Z,3.30
2019-03-25T14:23:51.778Z,3.02
2019-03-25T14:25:57.773Z,3.35
2019-03-25T14:28:03.754Z,4.58
2019-03-25T14:30:14.832Z,3.05
2019-03-25T14:32:18.358Z,4.78
2019-03-25T14:34:24.398Z,4.83
2019-03-25T14:36:30.386Z,3.45
2019-03-25T14:38:36.358Z,2.50
2019-03-25T14:40:42.310Z,7.05
2019-03-25T14:42:48.299Z,3.50
2019-03-25T14:44:54.280Z,4.72
2019-03-25T14:47:00.458Z,3.75
2019-03-25T14:49:06.437Z,4.20
2019-03-25T14:51:13.275Z,6.92
2019-03-25T14:53:19.279Z,3.60
2019-03-25T14:55:27.050Z,3.60
2019-03-25T14:57:33.014Z,6.05
2019-03-25T14:59:38.995Z,4.47
2019-03-25T15:01:45.050Z,4.72
2019-03-25T15:03:51.113Z,6.28
2019-03-25T15:05:57.156Z,4.12
2019-03-25T15:08:03.202Z,4.78
2019-03-25T15:10:09.619Z,5.08
2019-03-25T15:12:15.599Z,3.87
2019-03-25T15:14:21.573Z,4.00
2019-03-25T15:16:30.294Z,6.17
2019-03-25T15:18:36.351Z,4.20
2019-03-25T15:20:42.342Z,6.15
2019-03-25T15:22:48.305Z,5.78
2019-03-25T15:24:54.286Z,5.97
2019-03-25T15:27:00.222Z,3.75
2019-03-25T15:29:06.178Z,4.33
2019-03-25T15:31:12.178Z,3.47
2019-03-25T15:33:18.267Z,4.30
2019-03-25T15:35:24.309Z,4.42
2019-03-25T15:37:30.277Z,6.65
2019-03-25T15:39:46.414Z,4.72
2019-03-25T15:41:47.301Z,4.47
2019-03-25T15:43:53.388Z,3.47
2019-03-25T15:45:59.398Z,3.90
2019-03-25T15:48:05.566Z,4.80
2019-03-25T15:50:12.194Z,2.40
2019-03-25T15:52:18.251Z,6.92
2019-03-25T15:54:24.282Z,6.42
2019-03-25T15:56:30.430Z,3.62
2019-03-25T15:58:36.502Z,3.27
2019-03-25T16:00:47.506Z,5.30
2019-03-25T16:02:50.262Z,3.67
2019-03-25T16:04:56.290Z,4.45
2019-03-25T16:07:02.275Z,2.85
2019-03-25T16:09:09.229Z,5.28
2019-03-25T16:11:15.255Z,2.55
2019-03-25T16:13:21.551Z,3.27
2019-03-25T16:15:44.079Z,3.62
2019-03-25T16:17:51.526Z,3.17
2019-03-25T16:19:57.519Z,4.00
2019-03-25T16:22:03.621Z,3.00
2019-03-25T16:24:10.117Z,6.28
2019-03-25T16:26:18.133Z,2.65
2019-03-25T16:28:23.976Z,3.00
2019-03-25T16:30:33.663Z,6.85
2019-03-25T16:32:39.620Z,3.87
2019-03-25T16:34:45.879Z,3.45
2019-03-25T16:36:51.981Z,3.70
2019-03-25T16:38:57.938Z,3.22
2019-03-25T16:41:04.135Z,3.50
2019-03-25T16:43:12.374Z,2.52
2019-03-25T16:45:18.354Z,2.55
2019-03-25T16:47:24.718Z,4.87
2019-03-25T16:49:33.229Z,10.23
2019-03-25T16:51:42.016Z,12.47
2019-03-25T16:53:51.008Z,5.87
2019-03-25T17:03:55.883Z,2.55
2019-03-25T17:06:02.079Z,2.87
2019-03-25T17:08:08.199Z,8.63
2019-03-25T17:10:14.500Z,3.83
2019-03-25T17:12:20.576Z,6.12
2019-03-25T17:14:26.584Z,3.40
2019-03-25T17:16:32.718Z,2.35
2019-03-25T17:18:38.820Z,4.42
2019-03-25T17:20:50.641Z,3.33
2019-03-25T17:23:07.771Z,3.47
2019-03-25T17:25:13.970Z,6.67
2019-03-25T17:27:20.215Z,3.10
2019-03-25T17:29:26.283Z,2.60
2019-03-25T17:31:32.585Z,4.22
2019-03-25T17:34:01.007Z,4.05
2019-03-25T17:36:16.283Z,3.17
2019-03-25T17:38:25.039Z,3.80
2019-03-25T17:40:31.352Z,5.80
2019-03-25T17:42:37.492Z,1.87
2019-03-25T17:44:43.598Z,5.05
2019-03-25T17:46:49.652Z,3.98
2019-03-25T17:48:55.730Z,2.22
2019-03-25T17:51:02.431Z,2.52
2019-03-25T17:53:08.431Z,2.30
2019-03-25T17:55:14.597Z,2.52
2019-03-25T17:57:20.770Z,3.70
2019-03-25T17:59:26.784Z,2.80
2019-03-25T18:01:36.385Z,3.22
2019-03-25T18:03:42.455Z,4.97
2019-03-25T18:05:48.444Z,3.00
2019-03-25T18:07:54.527Z,3.70
2019-03-25T18:10:03.438Z,2.12
2019-03-25T18:12:09.606Z,2.02
2019-03-25T18:14:15.632Z,2.80
2019-03-25T18:16:21.614Z,1.60
2019-03-25T18:18:27.606Z,2.87
2019-03-25T18:20:34.291Z,1.70
2019-03-25T18:22:40.453Z,2.40
2019-03-25T18:24:46.467Z,1.30
2019-03-25T18:26:54.402Z,4.60
2019-03-25T18:29:00.382Z,3.33
2019-03-25T18:31:07.697Z,1.60
2019-03-25T18:33:13.667Z,1.25
2019-03-25T18:35:24.608Z,1.40
2019-03-25T18:37:30.628Z,2.65
2019-03-25T18:39:36.739Z,1.72
2019-03-25T18:41:42.843Z,1.57
2019-03-25T18:43:48.866Z,2.35
2019-03-25T18:45:54.882Z,1.90
2019-03-25T18:48:02.096Z,1.37
2019-03-25T18:50:10.886Z,2.30
2019-03-25T18:52:16.878Z,1.80
2019-03-25T18:54:26.609Z,1.70
2019-03-25T18:56:32.711Z,1.35
2019-03-25T18:58:39.521Z,1.40
2019-03-25T19:00:45.544Z,1.87
2019-03-25T19:02:54.934Z,1.72
2019-03-25T19:05:01.219Z,1.65
2019-03-25T19:07:08.009Z,1.50
2019-03-25T19:09:15.694Z,1.20
2019-03-25T19:11:30.875Z,2.60
2019-03-25T19:13:29.874Z,2.62
2019-03-25T19:15:35.852Z,1.47
2019-03-25T19:17:42.221Z,4.17
2019-03-25T19:19:48.321Z,2.87
2019-03-25T19:21:54.429Z,1.35
2019-03-25T19:24:00.460Z,4.00
2019-03-25T19:26:08.035Z,1.80
2019-03-25T19:28:14.171Z,2.83
2019-03-25T19:30:24.806Z,1.52
2019-03-25T19:32:30.854Z,2.30
2019-03-25T19:34:36.890Z,1.75
2019-03-25T19:36:42.937Z,2.60
2019-03-25T19:38:49.044Z,2.35
2019-03-25T19:40:55.031Z,5.75
2019-03-25T19:43:01.072Z,2.05
2019-03-25T19:45:07.853Z,2.27
2019-03-25T19:47:13.860Z,2.85
2019-03-25T19:49:28.746Z,2.70
2019-03-25T19:51:36.138Z,1.72
2019-03-25T19:53:43.891Z,2.17
2019-03-25T19:55:49.884Z,3.65
2019-03-25T19:57:56.115Z,1.72
2019-03-25T20:00:02.532Z,0.90
2019-03-25T20:02:19.037Z,1.30
2019-03-25T20:04:20.181Z,3.50
2019-03-25T20:06:31.208Z,2.87
2019-03-25T20:08:37.754Z,1.65
2019-03-25T20:10:47.058Z,5.60
2019-03-25T20:12:57.633Z,1.75
2019-03-25T20:15:03.929Z,2.05
2019-03-25T20:17:12.215Z,2.33
2019-03-25T20:19:21.738Z,2.55
2019-03-25T20:21:30.574Z,1.82
2019-03-25T20:23:40.243Z,1.60
2019-03-25T20:25:51.896Z,3.80
2019-03-25T20:27:58.026Z,3.60
2019-03-25T20:30:05.013Z,1.80
2019-03-25T20:32:11.069Z,2.10
2019-03-25T20:34:17.322Z,5.62
2019-03-25T20:36:24.844Z,1.57
2019-03-25T20:38:33.483Z,1.45
2019-03-25T20:40:39.526Z,2.37
2019-03-25T20:42:45.567Z,1.52
2019-03-25T20:44:52.094Z,1.40
2019-03-25T20:46:58.371Z,1.37
2019-03-25T20:49:04.889Z,1.95
2019-03-25T20:51:11.129Z,1.60
2019-03-25T20:53:20.157Z,2.67
2019-03-25T20:55:26.747Z,1.30
2019-03-25T20:57:35.798Z,1.40
2019-03-25T20:59:44.636Z,1.90
2019-03-25T21:01:59.534Z,1.20
2019-03-25T21:04:05.552Z,1.30
2019-03-25T21:06:37.383Z,2.45
2019-03-25T21:08:45.466Z,2.08
2019-03-25T21:10:51.610Z,1.45
2019-03-25T21:13:02.149Z,1.20
2019-03-25T21:15:08.913Z,1.15
2019-03-25T21:17:17.444Z,1.27
2019-03-25T21:19:23.754Z,1.02
2019-03-25T21:21:29.923Z,1.27
2019-03-25T21:23:38.825Z,1.92
2019-03-25T21:25:50.936Z,1.72
2019-03-25T21:27:57.244Z,1.30
2019-03-25T21:30:06.600Z,4.72
2019-03-25T21:32:12.685Z,1.62
2019-03-25T21:34:18.686Z,1.50
2019-03-25T21:36:24.844Z,1.20
2019-03-25T21:38:31.247Z,1.12
2019-03-25T21:40:40.816Z,2.95
2019-03-25T21:42:46.868Z,1.15
2019-03-25T21:44:53.108Z,3.45
2019-03-25T21:46:59.627Z,1.30
2019-03-25T21:49:05.903Z,1.52
2019-03-25T21:51:11.982Z,2.02
2019-03-25T21:53:18.403Z,3.90
2019-03-25T21:55:24.706Z,2.52
2019-03-25T21:57:33.566Z,3.27
2019-03-25T21:59:38.964Z,3.85
2019-03-25T22:01:47.839Z,1.40
2019-03-25T22:03:53.880Z,1.55
2019-03-25T22:06:00.133Z,1.17
2019-03-25T22:08:06.157Z,1.42
2019-03-25T22:10:12.510Z,1.52
2019-03-25T22:12:18.539Z,1.45
2019-03-25T22:14:24.728Z,1.55
2019-03-25T22:16:30.783Z,2.95
2019-03-25T22:18:36.848Z,1.12
2019-03-25T22:20:45.514Z,1.47
2019-03-25T22:22:51.541Z,1.55
2019-03-25T22:24:57.543Z,1.52
2019-03-25T22:27:03.546Z,0.95
2019-03-25T22:29:09.916Z,1.50
2019-03-25T22:31:15.914Z,1.40
2019-03-25T22:33:26.033Z,0.82
2019-03-25T22:35:29.650Z,1.87
2019-03-25T22:37:35.627Z,1.50
2019-03-25T22:39:41.594Z,1.10
2019-03-25T22:41:47.608Z,1.20
2019-03-25T22:43:55.270Z,1.32
2019-03-25T22:46:01.314Z,1.05
2019-03-25T22:48:07.615Z,1.60
2019-03-25T22:50:26.887Z,0.85
2019-03-25T22:52:32.871Z,1.40
2019-03-25T22:54:38.842Z,1.40
2019-03-25T22:56:46.483Z,8.53
2019-03-25T22:58:52.463Z,1.45
2019-03-25T23:00:58.868Z,1.10
2019-03-25T23:03:04.971Z,1.07
2019-03-25T23:05:10.950Z,0.90
2019-03-25T23:07:17.008Z,1.30
2019-03-25T23:09:23.200Z,0.88
2019-03-25T23:11:29.188Z,3.67
2019-03-25T23:13:35.223Z,1.30
2019-03-25T23:15:41.399Z,1.37
2019-03-25T23:17:50.144Z,0.98
2019-03-25T23:19:56.101Z,0.70
2019-03-25T23:22:02.051Z,1.00
2019-03-25T23:24:08.151Z,1.77
2019-03-25T23:26:14.269Z,1.07
2019-03-25T23:28:20.275Z,1.10
2019-03-25T23:30:26.282Z,0.88
2019-03-25T23:32:32.247Z,1.40
2019-03-25T23:34:38.215Z,0.93
2019-03-25T23:36:44.222Z,1.87
2019-03-25T23:38:50.268Z,1.00
2019-03-25T23:40:56.310Z,1.70
2019-03-25T23:43:02.331Z,1.20
2019-03-25T23:45:08.368Z,2.92
2019-03-25T23:47:14.371Z,2.45
2019-03-25T23:49:20.378Z,2.37
2019-03-25T23:51:26.373Z,2.08
2019-03-25T23:53:33.280Z,1.50
2019-03-25T23:55:39.311Z,1.02
2019-03-25T23:57:47.470Z,1.00
2019-03-25T23:59:53.498Z,0.98
